Time;durP1;ratioP1;P1;durP2;ratioP2;P2;SDS_P1;SDS_P2;PMS_P1;PMS_P2;Temp;Humidity;BMP_temperature;BMP_pressure;BME280_temperature;BME280_humidity;BME280_pressure;Samples;Min_cycle;Max_cycle;Signal;HPM_P1;HPM_P2
2023/05/03 00:02:00;;;;;;;;;16.50;14.50;;;;;-147.17;100.00;6443.75;5058371;28;51147;-45
2023/05/03 00:04:26;;;;;;;;;15.75;15.75;;;;;-147.17;100.00;6443.75;5053794;28;52425;-45
2023/05/03 00:06:52;;;;;;;;;17.00;15.75;;;;;-147.17;100.00;5945.44;5068534;28;51923;-45
2023/05/03 00:09:17;;;;;;;;;11.75;11.50;;;;;-147.17;100.00;6692.91;5056364;27;51023;-46
2023/05/03 00:11:42;;;;;;;;;12.75;12.75;;;;;-147.17;100.00;7440.50;5063862;28;51458;-46
2023/05/03 00:14:07;;;;;;;;;13.25;12.25;;;;;-147.17;100.00;7191.28;5059954;28;51173;-45
2023/05/03 00:16:33;;;;;;;;;12.75;12.25;;;;;-147.17;100.00;7191.28;5068564;28;51521;-45
2023/05/03 00:18:58;;;;;;;;;14.75;13.50;;;;;-147.17;100.00;7689.75;5054781;28;51048;-46
2023/05/03 00:21:23;;;;;;;;;12.00;10.00;;;;;-147.17;100.00;7939.00;5071214;27;51038;-46
2023/05/03 00:23:49;;;;;;;;;11.50;11.00;;;;;-147.17;100.00;8437.53;5070427;28;51194;-45
2023/05/03 00:26:14;;;;;;;;;12.25;10.00;;;;;-147.17;100.00;8936.16;5068070;28;51670;-46
2023/05/03 00:28:40;;;;;;;;;15.00;13.25;;;;;-147.17;100.00;9185.47;5072932;28;51115;-46
2023/05/03 00:31:08;;;;;;;;;12.75;12.25;;;;;-147.17;100.00;9684.19;5072854;28;51342;-46
2023/05/03 00:33:34;;;;;;;;;13.75;12.75;;;;;-147.17;100.00;9684.19;5055105;28;50997;-45
2023/05/03 00:36:06;;;;;;;;;13.50;10.50;;;;;-147.17;100.00;9933.56;5072391;28;51724;-46
2023/05/03 00:38:31;;;;;;;;;15.50;11.50;;;;;-147.17;100.00;9933.56;5072811;28;51022;-45
2023/05/03 00:40:56;;;;;;;;;11.75;11.75;;;;;-147.17;100.00;10432.38;5061948;28;51089;-46
2023/05/03 00:43:21;;;;;;;;;15.00;11.50;;;;;-147.17;100.00;11180.69;5069005;28;51125;-45
2023/05/03 00:45:47;;;;;;;;;11.50;11.00;;;;;-147.17;100.00;11430.19;5072612;28;51107;-46
2023/05/03 00:48:12;;;;;;;;;10.25;10.25;;;;;-147.17;100.00;11430.19;5063709;27;51241;-45
2023/05/03 00:50:38;;;;;;;;;9.00;8.75;;;;;-147.17;100.00;11679.66;5071468;28;51435;-46
2023/05/03 00:53:04;;;;;;;;;9.00;9.00;;;;;-147.17;100.00;12927.34;5071624;27;51174;-45
2023/05/03 00:55:30;;;;;;;;;11.00;10.50;;;;;-147.17;100.00;12927.34;5064564;28;51208;-45
2023/05/03 00:57:56;;;;;;;;;13.25;12.00;;;;;-147.17;100.00;13176.94;5069324;28;51114;-45
2023/05/03 01:00:23;;;;;;;;;12.50;9.75;;;;;-147.17;100.00;13176.94;5067215;28;51134;-46
2023/05/03 01:02:48;;;;;;;;;9.50;9.00;;;;;-147.17;100.00;13925.81;5070799;28;51172;-46
2023/05/03 01:05:14;;;;;;;;;11.00;11.00;;;;;-147.17;100.00;13676.16;5065589;28;51653;-46
2023/05/03 01:08:22;;;;;;;;;10.00;10.00;;;;;-147.17;100.00;13925.81;5051811;28;51183;-45
2023/05/03 01:10:54;;;;;;;;;14.25;13.00;;;;;-147.17;100.00;13176.94;5070171;28;51090;-46
2023/05/03 01:13:25;;;;;;;;;11.50;11.00;;;;;-147.17;100.00;12927.34;5071597;28;51255;-46
2023/05/03 01:16:31;;;;;;;;;10.75;10.75;;;;;-147.17;100.00;12428.22;5065847;28;51713;-45
2023/05/03 01:19:02;;;;;;;;;14.50;13.00;;;;;-147.17;100.00;12178.69;5065522;28;51099;-46
2023/05/03 01:21:29;;;;;;;;;13.50;13.50;;;;;-147.17;100.00;11679.66;5055305;28;51112;-46
2023/05/03 01:24:12;;;;;;;;;15.00;13.50;;;;;-147.17;100.00;11430.19;5066339;28;51286;-46
2023/05/03 01:26:38;;;;;;;;;13.50;11.00;;;;;-147.17;100.00;11929.16;5069686;28;51060;-44
2023/05/03 01:29:04;;;;;;;;;15.50;15.50;;;;;-147.17;100.00;11180.69;5072033;28;51141;-45
2023/05/03 01:31:51;;;;;;;;;12.50;11.75;;;;;-147.17;100.00;11679.66;5080849;27;51077;-44
2023/05/03 01:34:41;;;;;;;;;12.50;10.00;;;;;-147.17;100.00;10931.25;5074031;28;50863;-44
2023/05/03 01:37:09;;;;;;;;;12.00;11.25;;;;;-147.17;100.00;10931.25;5064299;28;52310;-44
2023/05/03 01:39:53;;;;;;;;;15.25;14.00;;;;;-147.17;100.00;10681.81;5074527;28;50894;-45
2023/05/03 01:42:19;;;;;;;;;13.25;13.00;;;;;-147.17;100.00;10432.38;5066359;28;51152;-44
2023/05/03 01:44:47;;;;;;;;;18.00;15.00;;;;;-147.17;100.00;10182.97;5069177;28;51023;-45
2023/05/03 01:47:14;;;;;;;;;16.25;16.25;;;;;-147.17;100.00;9933.56;5063207;28;52023;-45
2023/05/03 01:49:39;;;;;;;;;12.50;11.00;;;;;-147.17;100.00;9684.19;5072182;28;51116;-45
2023/05/03 01:52:05;;;;;;;;;14.25;13.75;;;;;-147.17;100.00;10182.97;5037269;28;51004;-46
2023/05/03 01:54:30;;;;;;;;;15.25;15.25;;;;;-147.17;100.00;10681.81;5068856;28;51145;-46
2023/05/03 01:56:56;;;;;;;;;14.25;13.25;;;;;-147.17;100.00;11180.69;5071893;28;51979;-46
2023/05/03 01:59:21;;;;;;;;;14.75;13.75;;;;;-147.17;100.00;10681.81;5062461;28;51054;-45
2023/05/03 02:01:46;;;;;;;;;14.00;13.00;;;;;-147.17;100.00;10681.81;5065331;28;51109;-45
2023/05/03 02:04:12;;;;;;;;;15.00;13.50;;;;;-147.17;100.00;10182.97;5066667;28;51396;-46
2023/05/03 02:06:37;;;;;;;;;16.00;15.50;;;;;-147.17;100.00;9684.19;5075872;27;51617;-45
2023/05/03 02:09:03;;;;;;;;;21.25;19.75;;;;;-147.17;100.00;8936.16;5069948;27;51012;-45
2023/05/03 02:11:28;;;;;;;;;16.50;16.00;;;;;-147.17;100.00;8188.25;5063510;27;51176;-45
2023/05/03 02:13:53;;;;;;;;;17.00;15.00;;;;;-147.17;100.00;7440.50;5068204;28;50959;-45
2023/05/03 02:16:19;;;;;;;;;18.25;17.00;;;;;-147.17;100.00;6942.09;5053133;28;51996;-46
2023/05/03 02:18:45;;;;;;;;;18.25;17.00;;;;;-147.17;100.00;6942.09;5058195;28;51246;-46
2023/05/03 02:21:11;;;;;;;;;18.25;16.75;;;;;-147.17;100.00;6942.09;5068360;28;51074;-46
2023/05/03 02:23:37;;;;;;;;;20.00;18.75;;;;;-147.17;100.00;6443.75;5073329;28;50910;-45
2023/05/03 02:26:02;;;;;;;;;18.00;18.00;;;;;-147.17;100.00;6443.75;5070206;28;51021;-45
2023/05/03 02:28:27;;;;;;;;;16.00;16.00;;;;;-147.17;100.00;6692.91;5042247;28;51351;-45
2023/05/03 02:30:53;;;;;;;;;17.50;17.50;;;;;-147.17;100.00;6443.75;5071844;28;57561;-45
2023/05/03 02:33:18;;;;;;;;;16.25;15.75;;;;;-147.17;100.00;6942.09;5067966;28;50887;-46
2023/05/03 02:35:43;;;;;;;;;18.75;18.50;;;;;-147.17;100.00;6942.09;5059943;28;51085;-46
2023/05/03 02:38:09;;;;;;;;;18.50;17.00;;;;;-147.17;100.00;7191.28;5063399;28;51131;-45
2023/05/03 02:40:34;;;;;;;;;14.75;13.75;;;;;-147.17;100.00;6692.91;5072722;28;50911;-45
2023/05/03 02:43:01;;;;;;;;;14.00;14.00;;;;;-147.17;100.00;6692.91;5074637;28;51348;-45
2023/05/03 02:45:26;;;;;;;;;18.75;18.00;;;;;-147.17;100.00;6194.59;5070172;28;52802;-45
2023/05/03 02:47:52;;;;;;;;;16.25;15.75;;;;;-147.17;100.00;5447.22;5064444;28;51078;-46
2023/05/03 02:50:17;;;;;;;;;17.50;17.00;;;;;-147.17;100.00;5696.34;5061901;28;51509;-45
2023/05/03 02:52:42;;;;;;;;;17.75;16.25;;;;;-147.17;100.00;5696.34;5072988;28;51099;-46
2023/05/03 02:55:08;;;;;;;;;19.25;18.00;;;;;-147.17;100.00;5198.13;5069170;28;52072;-46
2023/05/03 02:57:33;;;;;;;;;19.75;18.75;;;;;-147.17;100.00;5447.22;5047641;28;51157;-46
2023/05/03 02:59:58;;;;;;;;;17.75;16.50;;;;;-147.17;100.00;5447.22;5074106;27;51145;-46
2023/05/03 03:02:24;;;;;;;;;18.25;17.75;;;;;-147.17;100.00;4949.06;5073645;28;51002;-46
2023/05/03 03:04:50;;;;;;;;;19.25;18.25;;;;;-147.17;100.00;4700.00;5073914;28;51822;-45
2023/05/03 03:07:15;;;;;;;;;21.50;20.00;;;;;-147.17;100.00;4450.97;5059588;28;50974;-45
2023/05/03 03:09:40;;;;;;;;;17.00;16.00;;;;;-147.17;100.00;4450.97;5070958;28;50941;-46
2023/05/03 03:12:06;;;;;;;;;17.50;17.00;;;;;-147.17;100.00;4201.94;5064516;28;51307;-46
2023/05/03 03:14:31;;;;;;;;;15.25;15.00;;;;;-147.17;100.00;4201.94;5073548;28;52926;-45
2023/05/03 03:16:57;;;;;;;;;18.75;18.00;;;;;-147.17;100.00;3703.94;5071588;28;51043;-44
2023/05/03 03:19:22;;;;;;;;;18.75;17.25;;;;;-147.17;100.00;3703.94;5069818;28;51478;-44
2023/05/03 03:21:47;;;;;;;;;17.50;16.00;;;;;-147.17;100.00;3703.94;5065809;27;50963;-46
2023/05/03 03:24:14;;;;;;;;;16.75;16.25;;;;;-147.17;100.00;3703.94;5072387;28;51081;-46
2023/05/03 03:26:39;;;;;;;;;20.00;18.00;;;;;-147.17;100.00;3454.97;5057959;28;50951;-44
2023/05/03 03:29:05;;;;;;;;;20.25;18.50;;;;;-147.17;100.00;2957.06;5072280;28;51189;-45
2023/05/03 03:31:30;;;;;;;;;17.25;15.25;;;;;-147.17;100.00;2957.06;5070389;27;51160;-45
2023/05/03 03:33:56;;;;;;;;;17.75;16.75;;;;;-147.17;100.00;2957.06;5074381;27;52667;-44
2023/05/03 03:36:21;;;;;;;;;20.00;17.75;;;;;-147.17;100.00;3206.00;5063452;28;51095;-46
2023/05/03 03:38:46;;;;;;;;;19.25;18.00;;;;;-147.17;100.00;3206.00;5072730;28;51018;-46
2023/05/03 03:41:12;;;;;;;;;19.75;14.75;;;;;-147.17;100.00;2708.13;5071937;28;51059;-46
2023/05/03 03:43:37;;;;;;;;;16.25;15.75;;;;;-147.17;100.00;2459.22;5058530;28;51167;-45
2023/05/03 03:46:03;;;;;;;;;22.00;20.00;;;;;-147.17;100.00;2708.13;5063072;28;51001;-44
2023/05/03 03:48:28;;;;;;;;;19.00;19.00;;;;;-147.17;100.00;2708.13;5068883;28;51131;-45
2023/05/03 03:50:53;;;;;;;;;19.00;16.25;;;;;-147.17;100.00;2459.22;5071829;28;51120;-45
2023/05/03 03:53:19;;;;;;;;;21.25;20.25;;;;;-147.17;100.00;2210.31;5063488;28;51096;-45
2023/05/03 03:55:44;;;;;;;;;17.25;15.75;;;;;-147.17;100.00;1961.44;5054004;28;64883;-46
2023/05/03 03:58:10;;;;;;;;;16.50;15.50;;;;;-147.17;100.00;1712.56;5066717;28;51178;-46
2023/05/03 04:00:35;;;;;;;;;18.00;17.25;;;;;-147.17;100.00;1463.72;5063479;28;52598;-46
2023/05/03 04:03:01;;;;;;;;;16.25;16.00;;;;;-147.17;100.00;1712.56;5065261;28;52872;-46
2023/05/03 04:05:26;;;;;;;;;23.25;21.25;;;;;-147.17;100.00;1712.56;5058040;28;51201;-46
2023/05/03 04:07:51;;;;;;;;;18.00;17.25;;;;;-147.17;100.00;1463.72;5069548;28;50974;-45
2023/05/03 04:10:17;;;;;;;;;15.50;15.25;;;;;-147.17;100.00;1463.72;5062612;27;51401;-45
2023/05/03 04:12:42;;;;;;;;;20.00;19.75;;;;;-147.17;100.00;1214.91;5065320;28;52272;-46
2023/05/03 04:15:09;;;;;;;;;33.50;32.75;;;;;-147.17;100.00;966.09;5063796;28;51243;-46
2023/05/03 04:17:34;;;;;;;;;30.00;26.50;;;;;-147.17;100.00;966.09;5068914;28;51161;-46
2023/05/03 04:20:05;;;;;;;;;32.25;28.50;;;;;-147.17;100.00;966.09;5069573;28;50887;-46
2023/05/03 04:22:31;;;;;;;;;25.75;23.25;;;;;-147.17;100.00;468.50;5064930;28;51799;-45
2023/05/03 04:24:56;;;;;;;;;24.75;23.75;;;;;-147.17;100.00;219.72;5063724;28;51065;-46
2023/05/03 04:27:22;;;;;;;;;27.50;22.50;;;;;-147.17;100.00;-277.75;5061945;28;51001;-45
2023/05/03 04:29:49;;;;;;;;;19.00;18.25;;;;;-147.17;100.00;-277.75;5071139;27;51051;-45
2023/05/03 04:32:15;;;;;;;;;18.75;17.50;;;;;-147.17;100.00;-775.19;5071826;27;51856;-44
2023/05/03 04:34:41;;;;;;;;;18.75;18.25;;;;;-147.17;100.00;-775.19;5072500;28;51055;-46
2023/05/03 04:37:08;;;;;;;;;20.50;19.25;;;;;-147.17;100.00;-526.47;5062767;28;51053;-44
2023/05/03 04:39:33;;;;;;;;;17.75;16.25;;;;;-147.17;100.00;-775.19;5076344;28;50914;-44
2023/05/03 04:42:00;;;;;;;;;15.25;15.00;;;;;-147.17;100.00;-277.75;5072635;28;51689;-46
2023/05/03 04:44:25;;;;;;;;;23.75;19.75;;;;;-147.17;100.00;-526.47;5074534;28;50973;-46
2023/05/03 04:46:50;;;;;;;;;20.50;17.50;;;;;-147.17;100.00;-277.75;5066892;28;51119;-49
2023/05/03 04:49:16;;;;;;;;;18.50;16.25;;;;;-147.17;100.00;-277.75;5071588;28;50837;-45
2023/05/03 04:51:41;;;;;;;;;16.25;15.75;;;;;-147.17;100.00;219.72;5072974;28;52527;-45
2023/05/03 04:54:07;;;;;;;;;17.00;15.25;;;;;-147.17;100.00;-29.03;5075869;28;53144;-46
2023/05/03 04:56:34;;;;;;;;;16.75;16.75;;;;;-147.17;100.00;-1023.88;5070929;28;51098;-45
2023/05/03 04:58:59;;;;;;;;;20.00;17.75;;;;;-147.17;100.00;-1769.84;5053277;28;50876;-45
2023/05/03 05:01:26;;;;;;;;;20.75;18.50;;;;;-147.17;100.00;-1769.84;5069062;27;51068;-44
2023/05/03 05:03:52;;;;;;;;;22.50;22.00;;;;;-147.17;100.00;-2018.47;5071749;28;51157;-44
2023/05/03 05:06:17;;;;;;;;;19.50;17.50;;;;;-147.17;100.00;-2018.47;5066314;28;51185;-45
2023/05/03 05:08:43;;;;;;;;;20.25;19.25;;;;;-147.17;100.00;-2267.06;5069479;28;51373;-46
2023/05/03 05:11:09;;;;;;;;;22.25;19.25;;;;;-147.17;100.00;-2515.66;5065570;28;51770;-46
2023/05/03 05:13:35;;;;;;;;;18.25;17.00;;;;;-147.17;100.00;-2515.66;5065437;28;51134;-47
2023/05/03 05:16:00;;;;;;;;;18.25;17.00;;;;;-147.17;100.00;-2515.66;5070240;28;51026;-46
2023/05/03 05:18:26;;;;;;;;;16.25;14.25;;;;;-147.17;100.00;-2018.47;5074831;28;51267;-45
2023/05/03 05:20:51;;;;;;;;;21.75;18.25;;;;;-147.17;100.00;-2515.66;5071444;28;52545;-44
2023/05/03 05:23:16;;;;;;;;;18.00;16.75;;;;;-147.17;100.00;-3012.78;5065377;28;50872;-46
2023/05/03 05:25:42;;;;;;;;;19.25;17.50;;;;;-147.17;100.00;-3261.34;5072471;28;50916;-46
2023/05/03 05:28:08;;;;;;;;;21.00;19.25;;;;;-147.17;100.00;-3758.38;5069565;28;51517;-45
2023/05/03 05:30:34;;;;;;;;;23.50;19.25;;;;;-147.17;100.00;-3758.38;5069673;27;51223;-46
2023/05/03 05:32:59;;;;;;;;;17.75;17.25;;;;;-147.17;100.00;-3758.38;5064641;28;51152;-44
2023/05/03 05:35:25;;;;;;;;;21.25;19.75;;;;;-147.17;100.00;-3758.38;5052105;28;51112;-44
2023/05/03 05:37:50;;;;;;;;;16.50;16.25;;;;;-147.17;100.00;-3509.84;5064819;28;52350;-49
2023/05/03 05:40:16;;;;;;;;;15.75;15.75;;;;;-147.17;100.00;-3509.84;5066761;28;65467;-46
2023/05/03 05:42:41;;;;;;;;;20.00;17.75;;;;;-147.17;100.00;-3509.84;5064237;28;51157;-45
2023/05/03 05:45:07;;;;;;;;;14.75;14.25;;;;;-147.17;100.00;-3261.34;5071471;28;51394;-46
2023/05/03 05:47:32;;;;;;;;;18.50;16.50;;;;;-147.17;100.00;-2515.66;5071658;27;50989;-46
2023/05/03 05:49:57;;;;;;;;;17.00;15.00;;;;;-147.17;100.00;-2515.66;5070247;28;52632;-46
2023/05/03 05:52:23;;;;;;;;;19.25;19.00;;;;;-147.17;100.00;-2764.22;5064600;28;51160;-46
2023/05/03 05:54:48;;;;;;;;;18.00;17.50;;;;;-147.17;100.00;-2764.22;5075165;28;51202;-46
2023/05/03 05:57:13;;;;;;;;;20.75;20.00;;;;;-147.17;100.00;-2018.47;5074790;28;51136;-46
2023/05/03 05:59:39;;;;;;;;;18.50;17.75;;;;;-147.17;100.00;-2018.47;5070612;28;51784;-46
2023/05/03 06:02:13;;;;;;;;;19.75;18.75;;;;;-147.17;100.00;-1272.53;5059969;27;51322;-45
2023/05/03 06:04:38;;;;;;;;;21.25;19.75;;;;;-147.17;100.00;-1272.53;5068874;28;51178;-46
2023/05/03 06:07:03;;;;;;;;;24.50;20.25;;;;;-147.17;100.00;-1023.88;5056385;28;53408;-46
2023/05/03 06:09:28;;;;;;;;;20.75;18.50;;;;;-147.17;100.00;-775.19;5057899;28;52227;-46
2023/05/03 06:11:54;;;;;;;;;24.00;20.25;;;;;-147.17;100.00;-277.75;5063159;28;65563;-46
2023/05/03 06:14:19;;;;;;;;;23.50;21.75;;;;;-147.17;100.00;-29.03;5070920;28;51126;-46
2023/05/03 06:16:45;;;;;;;;;18.75;18.00;;;;;-147.17;100.00;219.72;5074702;28;50946;-45
2023/05/03 06:19:10;;;;;;;;;22.50;21.25;;;;;-147.17;100.00;966.09;5062155;28;52029;-45
2023/05/03 06:21:36;;;;;;;;;16.00;14.00;;;;;-147.17;100.00;2210.31;5063731;28;50977;-45
2023/05/03 06:24:01;;;;;;;;;23.75;20.25;;;;;-147.17;100.00;2210.31;5073117;28;53184;-45
2023/05/03 06:26:26;;;;;;;;;11.25;10.25;;;;;-147.17;100.00;3206.00;5056392;28;51379;-47
2023/05/03 06:28:52;;;;;;;;;17.75;17.50;;;;;-147.17;100.00;5447.22;5063188;28;50956;-46
2023/05/03 06:31:17;;;;;;;;;19.50;17.75;;;;;-147.17;100.00;5447.22;5074219;28;50948;-46
2023/05/03 06:33:43;;;;;;;;;17.00;16.25;;;;;-147.17;100.00;6692.91;5074384;28;51088;-46
2023/05/03 06:36:08;;;;;;;;;20.75;17.75;;;;;-147.17;100.00;6942.09;5074437;28;51262;-46
2023/05/03 06:38:34;;;;;;;;;20.00;19.00;;;;;-147.17;100.00;6692.91;5066920;28;51599;-45
2023/05/03 06:40:59;;;;;;;;;18.75;17.50;;;;;-147.17;100.00;7939.00;5063512;28;50987;-45
2023/05/03 06:43:25;;;;;;;;;21.00;19.75;;;;;-147.17;100.00;8686.84;5074058;28;50955;-46
2023/05/03 06:45:52;;;;;;;;;19.50;18.50;;;;;-147.17;100.00;8686.84;5069030;28;51089;-44
2023/05/03 06:48:18;;;;;;;;;23.25;20.25;;;;;-147.17;100.00;7939.00;5061089;28;53082;-46
2023/05/03 06:50:43;;;;;;;;;19.50;18.25;;;;;-147.17;100.00;8188.25;5064889;28;50963;-45
2023/05/03 06:53:08;;;;;;;;;20.25;18.75;;;;;-147.17;100.00;8936.16;5068960;28;51275;-46
2023/05/03 06:55:34;;;;;;;;;19.75;19.50;;;;;-147.17;100.00;8437.53;5062404;28;50994;-44
2023/05/03 06:57:59;;;;;;;;;17.25;15.50;;;;;-147.17;100.00;10432.38;5071160;28;51664;-45
2023/05/03 07:00:25;;;;;;;;;21.75;19.50;;;;;-147.17;100.00;10681.81;5072320;28;51136;-45
2023/05/03 07:02:50;;;;;;;;;20.75;17.25;;;;;-147.17;100.00;10182.97;5073647;28;51368;-46
2023/05/03 07:05:16;;;;;;;;;19.25;19.00;;;;;-147.17;100.00;10182.97;5073694;28;51115;-46
2023/05/03 07:07:41;;;;;;;;;19.25;18.50;;;;;-147.17;100.00;11180.69;5055379;28;51770;-46
2023/05/03 07:10:07;;;;;;;;;24.00;23.00;;;;;-147.17;100.00;10681.81;5073587;28;50895;-45
2023/05/03 07:12:32;;;;;;;;;21.00;20.75;;;;;-147.17;100.00;10432.38;5073666;28;50906;-45
2023/05/03 07:14:57;;;;;;;;;22.00;20.25;;;;;-147.17;100.00;11180.69;5073566;28;51303;-45
2023/05/03 07:17:23;;;;;;;;;25.50;21.25;;;;;-147.17;100.00;11679.66;5071727;28;61130;-46
2023/05/03 07:19:49;;;;;;;;;19.25;18.00;;;;;-147.17;100.00;12677.78;5073037;27;51010;-46
2023/05/03 07:22:15;;;;;;;;;19.00;18.25;;;;;-147.17;100.00;13925.81;5073670;28;51099;-45
2023/05/03 07:24:40;;;;;;;;;21.25;18.75;;;;;-147.17;100.00;14924.50;5066774;28;51117;-45
2023/05/03 07:27:06;;;;;;;;;19.00;18.25;;;;;-147.17;100.00;15174.22;5073348;28;51608;-46
2023/05/03 07:29:32;;;;;;;;;17.50;16.50;;;;;-147.17;100.00;16423.03;5073644;28;50947;-45
2023/05/03 07:31:58;;;;;;;;;17.25;15.75;;;;;-147.17;100.00;17172.50;5073466;28;51123;-46
2023/05/03 07:34:23;;;;;;;;;17.75;17.00;;;;;-147.17;100.00;18671.91;5073119;27;51145;-46
2023/05/03 07:36:48;;;;;;;;;20.00;19.25;;;;;-147.17;100.00;18671.91;5073114;28;51709;-46
2023/05/03 07:39:14;;;;;;;;;23.00;21.00;;;;;-147.17;100.00;19171.84;5073192;28;51026;-46
2023/05/03 07:41:39;;;;;;;;;20.75;20.50;;;;;-147.17;100.00;19921.84;5073417;28;51746;-46
2023/05/03 07:44:04;;;;;;;;;22.75;21.00;;;;;-147.17;100.00;20421.94;5073585;28;51062;-47
2023/05/03 07:46:33;;;;;;;;;19.25;18.75;;;;;-147.17;100.00;21672.44;5072971;28;51038;-44
2023/05/03 07:49:03;;;;;;;;;21.25;20.25;;;;;-147.17;100.00;22673.13;5073080;28;50977;-45
2023/05/03 07:51:28;;;;;;;;;21.50;20.25;;;;;-147.17;100.00;23423.81;5072749;28;51326;-45
2023/05/03 07:53:55;;;;;;;;;17.75;15.75;;;;;-147.17;100.00;24424.97;5054771;28;51135;-44
2023/05/03 07:56:21;;;;;;;;;20.50;19.75;;;;;-147.17;100.00;25469.41;5072751;28;52741;-52
2023/05/03 07:58:46;;;;;;;;;21.25;19.25;;;;;-147.17;100.00;26856.53;5071491;28;51103;-52
2023/05/03 08:01:12;;;;;;;;;20.75;20.00;;;;;-147.17;100.00;27658.91;5072416;28;51204;-51
2023/05/03 08:03:37;;;;;;;;;19.50;19.00;;;;;-147.17;100.00;29156.47;5072970;28;50867;-52
2023/05/03 08:06:03;;;;;;;;;19.33;19.33;;;;;-147.17;100.00;30617.41;5072275;28;51765;-52
2023/05/03 08:08:30;;;;;;;;;20.50;20.00;;;;;-147.17;100.00;31522.44;5036992;28;51148;-51
2023/05/03 08:10:55;;;;;;;;;19.00;18.00;;;;;-147.17;100.00;32431.59;5072898;28;50886;-53
2023/05/03 08:13:21;;;;;;;;;22.75;20.25;;;;;-147.17;100.00;32752.97;5065611;27;51949;-54
2023/05/03 08:15:47;;;;;;;;;20.25;18.75;;;;;-147.17;100.00;33919.22;5050132;28;52817;-52
2023/05/03 08:18:13;;;;;;;;;23.00;22.75;;;;;-147.17;100.00;34560.31;5072919;28;51010;-53
2023/05/03 08:20:39;;;;;;;;;19.50;17.00;;;;;-147.17;100.00;35438.78;5072334;28;51163;-51
2023/05/03 08:23:04;;;;;;;;;17.25;16.50;;;;;-147.17;100.00;35925.16;5071961;28;51365;-52
2023/05/03 08:25:30;;;;;;;;;20.75;17.75;;;;;-147.17;100.00;36935.41;5072287;28;51727;-53
2023/05/03 08:27:55;;;;;;;;;18.25;17.25;;;;;-147.17;100.00;36705.88;5072668;28;51180;-54
2023/05/03 08:30:21;;;;;;;;;17.00;16.50;;;;;-147.17;100.00;37088.44;5072615;28;50958;-52
2023/05/03 08:32:47;;;;;;;;;18.25;17.25;;;;;-147.17;100.00;37806.56;5072698;28;51208;-52
2023/05/03 08:35:14;;;;;;;;;20.75;18.25;;;;;-147.17;100.00;37918.41;5071335;28;51066;-51
2023/05/03 08:37:41;;;;;;;;;18.75;18.00;;;;;-147.17;100.00;38365.84;5072347;28;50946;-52
2023/05/03 08:40:09;;;;;;;;;18.00;17.25;;;;;-147.17;100.00;38795.69;5070407;28;51229;-50
2023/05/03 08:42:38;;;;;;;;;17.25;16.25;;;;;-147.17;100.00;39044.97;5071677;28;51180;-53
2023/05/03 08:45:05;;;;;;;;;19.25;19.00;;;;;-147.17;100.00;39629.97;5071261;28;51178;-53
2023/05/03 08:47:34;;;;;;;;;17.25;16.25;;;;;-147.17;100.00;40220.94;5036483;28;51092;-52
2023/05/03 08:50:03;;;;;;;;;16.75;16.25;;;;;-147.17;100.00;40395.69;5058450;28;51198;-54
2023/05/03 08:52:29;;;;;;;;;17.25;13.75;;;;;-147.17;100.00;40639.19;5071849;27;50990;-53
2023/05/03 08:54:54;;;;;;;;;17.50;17.25;;;;;-147.17;100.00;40635.25;5071133;28;51817;-54
2023/05/03 08:57:23;;;;;;;;;18.50;17.50;;;;;-147.17;100.00;41173.34;5066291;27;51243;-51
2023/05/03 08:59:52;;;;;;;;;18.50;17.50;;;;;-147.17;100.00;41159.59;5068331;28;51203;-52
2023/05/03 09:02:17;;;;;;;;;15.50;14.50;;;;;-147.17;100.00;42404.97;5056457;28;51384;-53
2023/05/03 09:04:43;;;;;;;;;15.50;15.00;;;;;-147.17;100.00;42458.00;5058710;28;51069;-53
2023/05/03 09:07:10;;;;;;;;;17.25;17.00;;;;;-147.17;100.00;42577.84;5064342;28;52124;-51
2023/05/03 09:09:35;;;;;;;;;16.50;16.00;;;;;-147.17;100.00;42774.31;5064518;28;51163;-54
2023/05/03 09:12:01;;;;;;;;;15.50;14.50;;;;;-147.17;100.00;42678.03;5071888;28;50958;-54
2023/05/03 09:14:27;;;;;;;;;17.75;16.50;;;;;-147.17;100.00;42346.03;5070309;28;51193;-54
2023/05/03 09:16:52;;;;;;;;;15.25;14.00;;;;;-147.17;100.00;42662.31;5050099;28;51180;-54
2023/05/03 09:19:18;;;;;;;;;14.00;14.00;;;;;-147.17;100.00;42941.34;5055322;28;51116;-54
2023/05/03 09:21:45;;;;;;;;;17.00;15.25;;;;;-147.17;100.00;44653.09;5064614;28;51161;-53
2023/05/03 09:24:19;;;;;;;;;17.50;16.50;;;;;-147.17;100.00;44714.03;5070374;28;51874;-52
2023/05/03 09:26:46;;;;;;;;;19.00;19.00;;;;;-147.17;100.00;44073.25;5071441;28;51124;-52
2023/05/03 09:29:33;;;;;;;;;18.50;18.50;;;;;-147.17;100.00;43896.38;5058089;28;51163;-54
2023/05/03 09:32:07;;;;;;;;;17.25;16.00;;;;;-147.17;100.00;43756.84;5061581;28;51204;-52
2023/05/03 09:34:34;;;;;;;;;10.25;10.25;;;;;-147.17;100.00;43636.94;5067316;28;52388;-51
2023/05/03 09:37:00;;;;;;;;;17.00;16.00;;;;;-147.17;100.00;43654.63;5060196;28;51276;-53
2023/05/03 09:39:26;;;;;;;;;19.75;18.25;;;;;-147.17;100.00;43642.84;5054350;28;51527;-51
2023/05/03 09:41:51;;;;;;;;;18.25;17.50;;;;;-147.17;100.00;43621.22;5061051;28;51135;-53
2023/05/03 09:44:16;;;;;;;;;17.50;16.25;;;;;-147.17;100.00;43562.28;5066948;28;51681;-53
2023/05/03 09:47:04;;;;;;;;;16.25;16.25;;;;;-147.17;100.00;43326.47;5079804;27;51313;-54
2023/05/03 09:49:31;;;;;;;;;15.00;14.00;;;;;-147.17;100.00;43471.88;5067640;28;51198;-52
2023/05/03 09:51:58;;;;;;;;;17.75;17.75;;;;;-147.17;100.00;43576.03;5065003;27;51147;-54
2023/05/03 09:54:24;;;;;;;;;15.25;15.25;;;;;-147.17;100.00;43479.75;5061737;28;51795;-54
2023/05/03 09:56:50;;;;;;;;;18.50;18.00;;;;;-147.17;100.00;43397.19;5058505;28;51155;-52
2023/05/03 09:59:16;;;;;;;;;14.25;14.25;;;;;-147.17;100.00;43493.50;5054327;28;51210;-54
2023/05/03 10:01:43;;;;;;;;;14.50;14.00;;;;;-147.17;100.00;43574.06;5065438;28;51259;-53
2023/05/03 10:04:09;;;;;;;;;14.25;13.00;;;;;-147.17;100.00;43739.16;5067971;28;51922;-53
2023/05/03 10:06:42;;;;;;;;;16.75;16.00;;;;;-147.17;100.00;43656.59;5055472;28;51076;-53
2023/05/03 10:09:15;;;;;;;;;13.25;13.25;;;;;-147.17;100.00;43585.84;5060716;28;51087;-51
2023/05/03 10:11:51;;;;;;;;;16.00;14.75;;;;;-147.17;100.00;43530.84;5062260;28;51025;-53
2023/05/03 10:14:17;;;;;;;;;13.25;12.25;;;;;-147.17;100.00;43422.75;5054107;27;52720;-51
2023/05/03 10:16:48;;;;;;;;;13.50;13.00;;;;;-147.17;100.00;43754.88;5065350;28;51402;-53
2023/05/03 10:19:20;;;;;;;;;17.00;15.75;;;;;-147.17;100.00;44153.84;5063465;28;51146;-51
2023/05/03 10:22:04;;;;;;;;;17.75;16.25;;;;;-147.17;100.00;44061.47;5073869;28;51111;-54
2023/05/03 10:24:30;;;;;;;;;16.25;15.25;;;;;-147.17;100.00;44051.63;5066071;28;51234;-53
2023/05/03 10:26:56;;;;;;;;;16.25;15.25;;;;;-147.17;100.00;43855.09;5067788;28;51093;-54
2023/05/03 10:29:34;;;;;;;;;15.25;14.75;;;;;-147.17;100.00;43752.91;5073738;28;51063;-53
2023/05/03 10:32:01;;;;;;;;;14.25;12.00;;;;;-147.17;100.00;43670.34;5056236;28;51377;-52
2023/05/03 10:34:31;;;;;;;;;16.00;15.25;;;;;-147.17;100.00;43593.72;5069692;28;51754;-52
2023/05/03 10:37:01;;;;;;;;;14.25;13.25;;;;;-147.17;100.00;43487.59;5064099;28;51144;-51
2023/05/03 10:39:28;;;;;;;;;16.00;13.67;;;;;-147.17;100.00;43778.44;5067917;28;51253;-53
2023/05/03 10:42:06;;;;;;;;;15.00;14.00;;;;;-147.17;100.00;43688.03;5071445;27;51214;-52
2023/05/03 10:44:54;;;;;;;;;14.25;13.00;;;;;-147.17;100.00;43334.31;5059863;27;51921;-52
2023/05/03 10:47:23;;;;;;;;;12.00;11.33;;;;;-147.17;100.00;43574.06;5058941;28;51180;-53
2023/05/03 10:50:15;;;;;;;;;14.67;13.33;;;;;-147.17;100.00;43927.81;5068700;28;51093;-52
2023/05/03 10:52:41;;;;;;;;;11.33;10.67;;;;;-147.17;100.00;43896.38;5055138;28;51000;-54
2023/05/03 10:55:11;;;;;;;;;12.33;12.33;;;;;-147.17;100.00;44167.59;5062654;28;51726;-54
2023/05/03 10:57:40;;;;;;;;;15.33;14.33;;;;;-147.17;100.00;43998.56;5062763;28;51222;-51